Portada
METAR-TAF:

METAR-TAF

Aeropuertos :

Aeropuerto de Rabat-Salé

Rabat, Marruecos

latitud: 34-03N, longitud: 006-46W, altitud: 84 m

Observación

El informe se hizo hace 28 minutos, a las 04:30 UTC
Viento calma
Temperatura 8°C
Humedad 100%
Presión 1021 hPa
Visibilidad: 5000 m
Nubes dispersas a una altura de 2000 ft

METAR: GMME 040430Z 00000KT 5000 SCT020 08/08 Q1021 NOSIG

Hora: 05:58 (04:58 UTC)

Pronóstico

El informe se hizo hace 5 horas y 58 minutos, a las 23:00 UTC
Pronóstico válido del 04 a las 00 UTC al 05 a las 06 UTC
Viento 8 kt del norte-noroeste
Visibilidad: 5000 m
Cielo nuboso a una altura de 1500 ft
Evolucionando progresivamente
del 04 a las 10 UTC al 04 a las 12 UTC
Viento 10 kt del norte-noroeste
Nubes dispersas a una altura de 1500 ft

TAF: GMME 032300Z 0400/0506 34008KT 5000 BKN015 BECMG 0410/0412 34010KT SCT015

Observaciones y pronósticos meteorológicos de más de 4000 aeropuertos (mensajes METAR y TAF).

Los puntos amarillos y rojos representan las estaciones disponibles.

Ponga el ratón en el punto deseado para ver el nombre de la estación.

Haga clic para ver las observaciones y los pronósticos meteorológicos.

Para cambiar el mapa : haga clic en los botones verdes con una cruz de color negro para hacer un zoom, en el botón verde con un guión para alejar o en las flechas verdes para mapas adyacentes.


METAR-TAF: